createdAt,value
2023-01-27T00:01:07.428Z,25.90
2023-01-27T00:03:42.455Z,27.20
2023-01-27T00:06:14.479Z,28.50
2023-01-27T00:08:46.464Z,28.20
2023-01-27T00:11:35.738Z,28.60
2023-01-27T00:14:09.698Z,30.20
2023-01-27T00:16:41.666Z,29.60
2023-01-27T00:19:13.760Z,31.50
2023-01-27T00:22:03.068Z,30.60
2023-01-27T00:24:38.328Z,27.00
2023-01-27T00:27:11.648Z,30.30
2023-01-27T00:32:31.597Z,27.90
2023-01-27T00:35:03.887Z,27.50
2023-01-27T00:37:36.060Z,30.10
2023-01-27T00:40:13.601Z,27.30
2023-01-27T00:42:46.227Z,30.60
2023-01-27T00:45:37.843Z,29.50
2023-01-27T00:48:11.385Z,28.80
2023-01-27T00:50:43.466Z,28.40
2023-01-27T00:53:15.616Z,27.10
2023-01-27T00:55:48.445Z,27.00
2023-01-27T00:58:24.136Z,27.90
2023-01-27T01:00:59.656Z,25.60
2023-01-27T01:03:33.200Z,26.80
2023-01-27T01:06:07.701Z,25.60
2023-01-27T01:08:40.826Z,25.50
2023-01-27T01:11:15.927Z,26.30
2023-01-27T01:13:48.847Z,24.70
2023-01-27T01:16:24.162Z,23.80
2023-01-27T01:18:56.447Z,25.40
2023-01-27T01:21:28.586Z,24.60
2023-01-27T01:24:03.440Z,23.60
2023-01-27T01:26:36.532Z,23.20
2023-01-27T01:29:09.289Z,23.80
2023-01-27T01:31:41.572Z,19.10
2023-01-27T01:34:15.016Z,23.80
2023-01-27T01:36:49.088Z,23.10
2023-01-27T01:39:21.101Z,22.20
2023-01-27T01:41:53.276Z,22.00
2023-01-27T01:44:27.947Z,22.00
2023-01-27T01:47:00.558Z,22.70
2023-01-27T01:49:37.439Z,22.20
2023-01-27T01:52:12.692Z,21.10
2023-01-27T01:54:48.497Z,19.90
2023-01-27T01:57:23.343Z,20.90
2023-01-27T01:59:59.551Z,21.30
2023-01-27T02:02:33.128Z,18.50
2023-01-27T02:05:10.498Z,19.40
2023-01-27T02:07:51.110Z,18.10
2023-01-27T02:10:23.256Z,18.30
2023-01-27T02:12:55.289Z,18.80
2023-01-27T02:15:27.726Z,17.90
2023-01-27T02:18:00.851Z,19.90
2023-01-27T02:20:41.631Z,16.60
2023-01-27T02:23:28.020Z,19.00
2023-01-27T02:26:06.838Z,20.10
2023-01-27T02:28:39.606Z,22.30
2023-01-27T02:31:11.722Z,20.20
2023-01-27T02:33:44.075Z,19.50
2023-01-27T02:36:18.295Z,15.70
2023-01-27T02:38:52.920Z,18.80
2023-01-27T02:41:30.635Z,21.50
2023-01-27T02:44:03.011Z,21.00
2023-01-27T02:46:35.504Z,22.10
2023-01-27T02:49:09.293Z,21.30
2023-01-27T02:51:42.338Z,21.80
2023-01-27T02:54:14.326Z,23.70
2023-01-27T02:56:46.609Z,21.60
2023-01-27T02:59:20.170Z,22.10
2023-01-27T03:01:52.761Z,22.30
2023-01-27T03:04:25.116Z,24.00
2023-01-27T03:06:57.225Z,22.60
2023-01-27T03:09:29.575Z,23.50
2023-01-27T03:12:18.977Z,22.40
2023-01-27T03:15:10.442Z,22.90
2023-01-27T03:17:59.676Z,23.20
2023-01-27T03:20:32.016Z,23.60
2023-01-27T03:23:04.295Z,21.60
2023-01-27T03:25:36.607Z,23.20
2023-01-27T03:28:08.785Z,24.00
2023-01-27T03:31:09.275Z,24.70
2023-01-27T03:33:48.984Z,22.90
2023-01-27T03:36:48.384Z,22.40
2023-01-27T03:39:38.388Z,23.50
2023-01-27T03:42:27.945Z,22.50
2023-01-27T03:45:20.463Z,24.60
2023-01-27T03:47:53.420Z,23.20
2023-01-27T03:50:31.403Z,22.00
2023-01-27T03:53:06.255Z,22.30
2023-01-27T03:55:40.648Z,22.20
2023-01-27T03:58:24.207Z,22.80
2023-01-27T04:00:57.773Z,22.80
2023-01-27T04:03:49.914Z,21.40
2023-01-27T04:06:41.970Z,22.50
2023-01-27T04:09:15.576Z,22.90
2023-01-27T04:14:34.249Z,22.30
2023-01-27T04:17:08.788Z,23.70
2023-01-27T04:19:41.508Z,23.90
2023-01-27T04:22:15.629Z,23.40
2023-01-27T04:24:47.919Z,25.00
2023-01-27T04:27:20.597Z,22.20
2023-01-27T04:29:53.066Z,23.60
2023-01-27T04:32:25.326Z,23.00
2023-01-27T04:35:00.010Z,23.20
2023-01-27T04:37:33.640Z,21.70
2023-01-27T04:40:06.096Z,20.60
2023-01-27T04:42:38.214Z,21.40
2023-01-27T04:45:12.065Z,20.20
2023-01-27T04:47:44.345Z,19.70
2023-01-27T04:50:16.496Z,21.30
2023-01-27T04:52:48.446Z,23.30
2023-01-27T04:55:21.114Z,16.20
2023-01-27T04:57:53.406Z,20.90
2023-01-27T05:00:25.714Z,22.60
2023-01-27T05:02:57.999Z,18.30
2023-01-27T05:05:29.964Z,17.00
2023-01-27T05:08:06.407Z,16.40
2023-01-27T05:10:38.609Z,17.60
2023-01-27T05:13:10.553Z,20.50
2023-01-27T05:15:42.955Z,19.50
2023-01-27T05:18:15.356Z,17.20
2023-01-27T05:20:47.323Z,22.30
2023-01-27T05:23:37.871Z,22.10
2023-01-27T05:26:12.865Z,22.80
2023-01-27T05:28:48.056Z,22.50
2023-01-27T05:31:21.930Z,23.10
2023-01-27T05:33:57.661Z,24.00
2023-01-27T05:36:33.206Z,24.50
2023-01-27T05:39:06.553Z,23.80
2023-01-27T05:41:40.065Z,25.50
2023-01-27T05:44:13.795Z,24.70
2023-01-27T05:46:45.803Z,27.00
2023-01-27T05:49:21.680Z,25.40
2023-01-27T05:51:53.688Z,26.10
2023-01-27T05:54:25.732Z,27.10
2023-01-27T05:56:58.665Z,27.50
2023-01-27T05:59:30.899Z,21.90
2023-01-27T06:02:03.106Z,27.90
2023-01-27T06:04:35.737Z,27.50
2023-01-27T06:07:08.349Z,26.90
2023-01-27T06:09:40.957Z,28.80
2023-01-27T06:12:13.000Z,27.50
2023-01-27T06:14:45.638Z,29.00
2023-01-27T06:17:18.758Z,27.50
2023-01-27T06:19:50.828Z,23.00
2023-01-27T06:22:24.147Z,28.20
2023-01-27T06:24:56.428Z,28.40
2023-01-27T06:27:28.465Z,28.60
2023-01-27T06:30:01.196Z,30.60
2023-01-27T06:32:33.167Z,29.30
2023-01-27T06:35:05.479Z,30.20
2023-01-27T06:37:37.698Z,30.20
2023-01-27T06:40:12.010Z,30.90
2023-01-27T06:42:47.147Z,30.70
2023-01-27T06:45:22.166Z,35.20
2023-01-27T06:48:01.232Z,35.20
2023-01-27T06:50:33.570Z,37.90
2023-01-27T06:53:08.086Z,33.40
2023-01-27T06:55:44.579Z,31.80
2023-01-27T06:58:18.117Z,30.30
2023-01-27T07:00:50.111Z,27.40
2023-01-27T07:03:22.387Z,29.70
2023-01-27T07:05:54.480Z,30.40
2023-01-27T07:08:26.627Z,29.80
2023-01-27T07:10:58.916Z,30.70
2023-01-27T07:13:31.897Z,29.60
2023-01-27T07:16:04.192Z,30.70
2023-01-27T07:18:36.491Z,28.80
2023-01-27T07:21:09.395Z,26.80
2023-01-27T07:23:41.601Z,35.70
2023-01-27T07:26:24.611Z,31.80
2023-01-27T07:29:01.667Z,26.10
2023-01-27T07:31:35.011Z,29.90
2023-01-27T07:34:07.555Z,32.80
2023-01-27T07:36:39.638Z,33.40
2023-01-27T07:39:11.992Z,33.40
2023-01-27T07:41:46.007Z,32.50
2023-01-27T07:44:21.907Z,30.40
2023-01-27T07:46:54.137Z,30.60
2023-01-27T07:49:27.516Z,29.60
2023-01-27T07:54:32.784Z,29.20
2023-01-27T07:57:06.094Z,30.00
2023-01-27T07:59:38.839Z,29.30
2023-01-27T08:02:12.890Z,26.50
2023-01-27T08:04:52.982Z,29.30
2023-01-27T08:07:25.954Z,27.70
2023-01-27T08:09:57.997Z,28.00
2023-01-27T08:12:30.530Z,27.30
2023-01-27T08:15:06.025Z,26.70
2023-01-27T08:17:38.401Z,25.20
2023-01-27T08:20:13.371Z,29.30
2023-01-27T08:22:46.539Z,26.10
2023-01-27T08:25:18.854Z,26.50
2023-01-27T08:27:54.395Z,21.20
2023-01-27T08:30:26.752Z,23.80
2023-01-27T08:32:59.176Z,26.50
2023-01-27T08:35:31.347Z,25.90
2023-01-27T08:38:03.372Z,25.80
2023-01-27T08:40:35.463Z,25.20
2023-01-27T08:43:07.646Z,24.30
2023-01-27T08:45:41.376Z,23.50
2023-01-27T08:50:44.592Z,24.50
2023-01-27T08:53:16.867Z,23.70
2023-01-27T08:55:49.319Z,25.00
2023-01-27T08:58:23.610Z,23.80
2023-01-27T09:00:55.854Z,23.50
2023-01-27T09:03:28.505Z,22.70
2023-01-27T09:06:01.350Z,22.50
2023-01-27T09:08:34.053Z,17.20
2023-01-27T09:11:12.168Z,20.20
2023-01-27T09:13:45.219Z,21.00
2023-01-27T09:16:17.801Z,20.60
2023-01-27T09:18:52.153Z,21.70
2023-01-27T09:21:24.306Z,21.90
2023-01-27T09:23:56.656Z,22.80
2023-01-27T09:26:32.836Z,23.60
2023-01-27T09:29:06.245Z,25.20
2023-01-27T09:31:38.456Z,25.40
2023-01-27T09:34:11.692Z,27.60
2023-01-27T09:36:47.387Z,29.40
2023-01-27T09:39:21.565Z,30.70
2023-01-27T09:42:14.991Z,32.10
2023-01-27T09:45:16.947Z,29.80
2023-01-27T09:48:12.617Z,27.20
2023-01-27T09:50:47.676Z,29.80
2023-01-27T09:53:53.133Z,26.60
2023-01-27T09:56:38.405Z,25.80
2023-01-27T09:59:24.252Z,25.40
2023-01-27T10:02:06.082Z,24.10
2023-01-27T10:05:02.782Z,24.60
2023-01-27T10:08:01.977Z,25.30
2023-01-27T10:10:46.666Z,24.20
2023-01-27T10:13:31.445Z,24.10
2023-01-27T10:16:20.957Z,24.10
2023-01-27T10:19:12.077Z,22.80
2023-01-27T10:21:54.346Z,24.30
2023-01-27T10:24:42.299Z,24.60
2023-01-27T10:27:23.023Z,22.90
2023-01-27T10:30:01.877Z,24.60
2023-01-27T10:32:45.089Z,23.60
2023-01-27T10:35:21.354Z,22.10
2023-01-27T10:38:06.287Z,24.60
2023-01-27T10:40:46.910Z,25.60
2023-01-27T10:43:27.656Z,25.60
2023-01-27T10:46:09.647Z,25.50
2023-01-27T10:48:47.216Z,25.50
2023-01-27T10:51:24.316Z,24.60
2023-01-27T10:54:02.957Z,25.30
2023-01-27T10:56:42.197Z,24.30
2023-01-27T10:59:23.833Z,23.70
2023-01-27T11:02:02.834Z,24.10
2023-01-27T11:04:40.647Z,23.90
2023-01-27T11:07:19.740Z,28.60
2023-01-27T11:09:58.564Z,26.70
2023-01-27T11:12:35.226Z,24.40
2023-01-27T11:15:29.896Z,30.70
2023-01-27T11:18:07.035Z,25.40
2023-01-27T11:20:44.595Z,28.80
2023-01-27T11:23:20.083Z,27.70
2023-01-27T11:25:59.776Z,23.80
2023-01-27T11:28:39.267Z,28.00
2023-01-27T11:31:37.559Z,36.30
2023-01-27T11:34:17.981Z,23.20
2023-01-27T11:36:51.276Z,24.10
2023-01-27T11:39:24.135Z,27.80
2023-01-27T11:41:58.166Z,25.30
2023-01-27T11:44:34.098Z,31.60
2023-01-27T11:47:09.244Z,27.20
2023-01-27T11:49:47.756Z,30.00
2023-01-27T11:52:22.585Z,27.30
2023-01-27T11:54:59.761Z,27.70
2023-01-27T11:57:32.134Z,23.00
2023-01-27T12:00:09.005Z,23.70
2023-01-27T12:02:48.627Z,23.90
2023-01-27T12:05:26.383Z,22.90
2023-01-27T12:08:05.682Z,22.20
2023-01-27T12:10:42.328Z,21.60
2023-01-27T12:13:21.616Z,21.80
2023-01-27T12:15:59.107Z,22.80
2023-01-27T12:18:37.294Z,22.90
2023-01-27T12:21:11.950Z,22.60
2023-01-27T12:23:51.759Z,18.80
2023-01-27T12:26:37.980Z,24.80
2023-01-27T12:29:19.766Z,23.30
2023-01-27T12:31:55.206Z,22.90
2023-01-27T12:34:32.873Z,23.60
2023-01-27T12:37:07.972Z,22.80
2023-01-27T12:39:47.925Z,23.40
2023-01-27T12:42:39.446Z,20.80
2023-01-27T12:45:30.920Z,22.50
2023-01-27T12:48:20.682Z,21.10
2023-01-27T12:51:06.622Z,29.00
2023-01-27T12:53:40.185Z,22.10
2023-01-27T12:56:16.914Z,22.20
2023-01-27T12:58:59.474Z,22.00
2023-01-27T13:01:34.145Z,20.70
2023-01-27T13:04:14.381Z,21.70
2023-01-27T13:06:49.707Z,21.10
2023-01-27T13:09:29.439Z,22.00
2023-01-27T13:12:04.482Z,20.80
2023-01-27T13:14:44.495Z,21.80
2023-01-27T13:17:43.332Z,20.40
2023-01-27T13:20:23.718Z,21.30
2023-01-27T13:23:01.626Z,21.90
2023-01-27T13:25:39.513Z,20.80
2023-01-27T13:28:17.005Z,20.10
2023-01-27T13:30:54.037Z,20.40
2023-01-27T13:33:34.270Z,19.90
2023-01-27T13:36:12.017Z,19.70
2023-01-27T13:38:51.084Z,18.80
2023-01-27T13:41:28.810Z,17.50
2023-01-27T13:44:07.106Z,18.50
2023-01-27T13:46:41.812Z,18.80
2023-01-27T13:49:28.749Z,18.60
2023-01-27T13:52:01.024Z,19.90
2023-01-27T13:54:34.317Z,18.90
2023-01-27T13:57:35.647Z,17.50
2023-01-27T14:00:20.893Z,24.60
2023-01-27T14:03:17.710Z,19.50
2023-01-27T14:06:04.367Z,17.80
2023-01-27T14:09:04.116Z,18.00
2023-01-27T14:11:42.005Z,12.50
2023-01-27T14:14:30.027Z,12.40
2023-01-27T14:17:14.077Z,11.40
2023-01-27T14:19:58.659Z,12.90
2023-01-27T14:22:39.809Z,12.10
2023-01-27T14:25:24.688Z,11.70
2023-01-27T14:28:05.327Z,10.80
2023-01-27T14:30:45.863Z,11.00
2023-01-27T14:33:31.756Z,10.90
2023-01-27T14:36:19.147Z,10.40
2023-01-27T14:39:03.307Z,10.30
2023-01-27T14:41:41.873Z,10.60
2023-01-27T14:44:33.778Z,10.90
2023-01-27T14:47:23.828Z,11.20
2023-01-27T14:50:18.917Z,11.00
2023-01-27T14:53:00.454Z,8.70
2023-01-27T14:55:44.370Z,10.80
2023-01-27T14:58:42.829Z,10.70
2023-01-27T15:01:26.989Z,10.30
2023-01-27T15:06:49.631Z,10.40
2023-01-27T15:09:34.898Z,10.50
2023-01-27T15:12:33.183Z,9.90
2023-01-27T15:15:27.191Z,10.20
2023-01-27T15:18:13.818Z,10.40
2023-01-27T15:21:02.826Z,10.60
2023-01-27T15:24:12.840Z,10.70
2023-01-27T15:26:45.708Z,10.80
2023-01-27T15:29:24.032Z,11.20
2023-01-27T15:32:27.937Z,11.80
2023-01-27T15:35:32.449Z,11.10
2023-01-27T15:41:05.052Z,12.70
2023-01-27T15:43:44.386Z,12.80
2023-01-27T15:46:31.284Z,14.40
2023-01-27T15:49:11.768Z,17.20
2023-01-27T15:51:44.287Z,16.60
2023-01-27T15:54:20.566Z,17.30
2023-01-27T15:56:55.414Z,17.60
2023-01-27T15:59:30.987Z,19.50
2023-01-27T16:02:17.393Z,20.70
2023-01-27T16:04:57.007Z,17.50
2023-01-27T16:07:33.248Z,18.30
2023-01-27T16:14:33.485Z,17.40
2023-01-27T16:17:25.288Z,18.50
2023-01-27T16:20:52.461Z,17.40
2023-01-27T16:23:42.695Z,17.00
2023-01-27T16:26:51.032Z,15.60
2023-01-27T16:29:41.166Z,15.00
2023-01-27T16:32:27.261Z,19.00
2023-01-27T16:35:09.756Z,16.50
2023-01-27T16:38:23.459Z,18.10
2023-01-27T16:41:01.827Z,17.20
2023-01-27T16:44:06.824Z,18.20
2023-01-27T16:46:43.497Z,18.90
2023-01-27T16:49:21.356Z,17.70
2023-01-27T16:52:01.078Z,17.90
2023-01-27T16:54:39.039Z,16.70
2023-01-27T16:57:32.109Z,16.40
2023-01-27T17:00:10.798Z,16.80
2023-01-27T17:02:46.113Z,15.20
2023-01-27T17:05:21.660Z,15.80
2023-01-27T17:08:20.910Z,14.50
2023-01-27T17:10:57.118Z,15.10
2023-01-27T17:13:50.392Z,16.60
2023-01-27T17:16:30.952Z,16.30
2023-01-27T17:19:22.444Z,16.20
2023-01-27T17:29:04.691Z,19.00
2023-01-27T17:32:08.014Z,19.60
2023-01-27T17:38:36.696Z,19.70
2023-01-27T17:41:49.438Z,20.40
2023-01-27T17:45:18.148Z,22.40
2023-01-27T17:48:28.880Z,19.10
2023-01-27T17:51:29.598Z,20.20
2023-01-27T17:54:38.232Z,21.20
2023-01-27T17:57:50.069Z,18.60
2023-01-27T18:00:59.227Z,18.20
2023-01-27T18:04:00.668Z,17.00
2023-01-27T18:07:33.926Z,17.40
2023-01-27T18:11:10.446Z,18.30
2023-01-27T18:15:28.645Z,15.10
2023-01-27T18:18:32.891Z,15.50
2023-01-27T18:21:37.703Z,16.00
2023-01-27T18:25:19.940Z,16.00
2023-01-27T18:28:24.004Z,16.90
2023-01-27T18:31:49.919Z,17.20
2023-01-27T18:35:15.978Z,17.50
2023-01-27T18:38:50.902Z,18.10
2023-01-27T18:42:09.019Z,15.40
2023-01-27T18:45:35.958Z,17.30
2023-01-27T18:48:45.422Z,16.50
2023-01-27T18:52:05.340Z,16.10
2023-01-27T18:55:45.039Z,16.40
2023-01-27T18:58:57.890Z,16.50
2023-01-27T19:02:18.078Z,17.00
2023-01-27T19:08:53.424Z,14.80
2023-01-27T19:11:47.037Z,27.40
2023-01-27T19:15:16.642Z,18.70
2023-01-27T19:22:01.841Z,113.40
2023-01-27T19:25:05.115Z,112.00
2023-01-27T19:28:38.888Z,33.80
2023-01-27T19:38:32.478Z,17.40
2023-01-27T19:41:12.166Z,16.70
2023-01-27T19:44:04.657Z,16.30
2023-01-27T19:46:48.108Z,17.10
2023-01-27T19:49:56.991Z,15.60
2023-01-27T19:53:15.621Z,15.00
2023-01-27T19:55:50.878Z,16.80
2023-01-27T19:58:28.413Z,17.10
2023-01-27T20:01:06.915Z,16.70
2023-01-27T20:04:16.792Z,18.10
2023-01-27T20:06:53.256Z,16.20
2023-01-27T20:09:45.360Z,16.70
2023-01-27T20:12:22.229Z,11.50
2023-01-27T20:14:54.747Z,16.10
2023-01-27T20:17:27.748Z,18.00
2023-01-27T20:20:00.128Z,16.60
2023-01-27T20:22:33.448Z,16.20
2023-01-27T20:25:21.482Z,18.10
2023-01-27T20:28:00.571Z,17.30
2023-01-27T20:30:34.642Z,16.20
2023-01-27T20:33:07.731Z,16.30
2023-01-27T20:35:45.125Z,17.00
2023-01-27T20:38:18.266Z,16.20
2023-01-27T20:40:50.398Z,17.20
2023-01-27T20:43:34.637Z,17.20
2023-01-27T20:46:09.208Z,16.00
2023-01-27T20:48:41.706Z,17.20
2023-01-27T20:51:15.741Z,17.50
2023-01-27T20:53:48.060Z,17.00
2023-01-27T20:56:22.869Z,17.80
2023-01-27T20:58:55.441Z,16.40
2023-01-27T21:01:35.528Z,15.70
2023-01-27T21:04:08.405Z,17.20
2023-01-27T21:06:43.017Z,15.90
2023-01-27T21:09:15.698Z,18.30
2023-01-27T21:11:48.025Z,17.10
2023-01-27T21:14:24.664Z,17.40
2023-01-27T21:16:58.698Z,17.90
2023-01-27T21:19:33.102Z,19.60
2023-01-27T21:22:05.756Z,18.20
2023-01-27T21:24:38.070Z,16.40
2023-01-27T21:27:11.950Z,18.00
2023-01-27T21:29:44.384Z,19.40
2023-01-27T21:32:16.695Z,17.60
2023-01-27T21:34:49.085Z,19.40
2023-01-27T21:37:21.610Z,14.50
2023-01-27T21:39:54.041Z,17.30
2023-01-27T21:42:43.461Z,19.40
2023-01-27T21:45:18.004Z,18.00
2023-01-27T21:47:50.155Z,19.20
2023-01-27T21:50:22.398Z,19.10
2023-01-27T21:52:56.653Z,17.70
2023-01-27T21:55:30.859Z,18.40
2023-01-27T21:58:02.815Z,19.00
2023-01-27T22:00:35.106Z,18.50
2023-01-27T22:03:07.539Z,19.70
2023-01-27T22:05:40.280Z,18.30
2023-01-27T22:08:13.647Z,19.70
2023-01-27T22:10:45.767Z,18.20
2023-01-27T22:13:18.010Z,18.10
2023-01-27T22:15:53.466Z,16.70
2023-01-27T22:18:25.492Z,19.20
2023-01-27T22:20:58.019Z,19.20
2023-01-27T22:23:30.140Z,20.20
2023-01-27T22:26:02.626Z,19.90
2023-01-27T22:28:35.112Z,17.90
2023-01-27T22:31:07.417Z,18.80
2023-01-27T22:33:41.318Z,17.90
2023-01-27T22:36:13.886Z,16.60
2023-01-27T22:38:45.876Z,17.00
2023-01-27T22:41:17.971Z,18.80
2023-01-27T22:43:52.478Z,17.60
2023-01-27T22:46:24.685Z,16.60
2023-01-27T22:48:56.705Z,18.40
2023-01-27T22:51:29.010Z,17.70
2023-01-27T22:54:01.726Z,17.60
2023-01-27T22:56:33.827Z,14.00
2023-01-27T22:59:06.012Z,18.10
2023-01-27T23:01:38.869Z,17.40
2023-01-27T23:04:14.485Z,16.90
2023-01-27T23:06:47.123Z,17.70
2023-01-27T23:09:20.288Z,17.80
2023-01-27T23:11:53.156Z,13.10
2023-01-27T23:14:26.274Z,14.90
2023-01-27T23:16:58.800Z,17.90
2023-01-27T23:19:31.628Z,18.90
2023-01-27T23:22:03.826Z,12.80
2023-01-27T23:24:36.151Z,18.70
2023-01-27T23:27:08.447Z,20.20
2023-01-27T23:29:41.827Z,18.10
2023-01-27T23:32:13.927Z,17.40
2023-01-27T23:34:45.960Z,18.80
2023-01-27T23:37:19.043Z,17.80
2023-01-27T23:39:51.465Z,18.90
2023-01-27T23:42:23.698Z,17.60
2023-01-27T23:44:58.440Z,20.10
2023-01-27T23:47:30.773Z,19.90
2023-01-27T23:50:02.888Z,19.40
2023-01-27T23:52:36.910Z,19.60
2023-01-27T23:57:39.829Z,19.00
